KBTP/BTP METAR and TAF weather

Enter ICAO airport designator
Station Type Date Time Source
KBTP METAR 2018/12/10 18:56 UTC NOAA

KBTP 101856Z AUTO 03005KT 9SM OVC015 M02/M06 A3017 RMK AO2 SLP242 T10221061 FZRANO


Station Type Date Time Source
KBTP Decoded METAR 2018/12/10 18:56 UTC NOAA

Butler, Butler County Airport/K W Scholter Field, PA, United States (KBTP) 40-47N 079-57W
Dec 10, 2018 - 01:56 PM EST / 2018.12.10 1856 UTC
Wind: from the NNE (030 degrees) at 6 MPH (5 KT):0
Visibility: 9 mile(s):0
Sky conditions: overcast
Temperature: 28.0 F (-2.2 C)
Windchill: 21 F (-6 C):1
Dew Point: 21.0 F (-6.1 C)
Relative Humidity: 74%
Pressure (altimeter): 30.17 in. Hg (1021 hPa)
ob: KBTP 101856Z AUTO 03005KT 9SM OVC015 M02/M06 A3017 RMK AO2 SLP242 T10221061 FZRANO
cycle: 19

Station Type Date Time Source
KBTP TAF UTC NOAA

Error!


Example: see airport list